Time;durP1;ratioP1;P1;durP2;ratioP2;P2;SDS_P1;SDS_P2;PMS_P1;PMS_P2;Temp;Humidity;BMP_temperature;BMP_pressure;BME280_temperature;BME280_humidity;BME280_pressure;Samples;Min_cycle;Max_cycle;Signal;HPM_P1;HPM_P2
2024/02/26 00:02:10;;;;;;;8.90;5.60;;;;;;;7.02;72.85;95744.73;108857;1271;23858;-75
2024/02/26 00:04:41;;;;;;;9.30;5.20;;;;;;;6.95;72.82;95746.85;108835;1271;22629;-75
2024/02/26 00:07:15;;;;;;;7.20;5.00;;;;;;;6.89;72.81;95740.09;108780;1271;22541;-75
2024/02/26 00:09:46;;;;;;;10.10;6.40;;;;;;;6.82;73.14;95738.40;108830;1271;25425;-75
2024/02/26 00:12:17;;;;;;;10.80;5.90;;;;;;;6.76;73.26;95737.30;108815;1264;22539;-75
2024/02/26 00:14:49;;;;;;;10.40;5.70;;;;;;;6.72;73.48;95743.52;108822;1271;22629;-75
2024/02/26 00:17:20;;;;;;;8.60;4.90;;;;;;;6.74;73.61;95742.14;108718;1271;143600;-75
2024/02/26 00:19:54;;;;;;;10.70;6.80;;;;;;;6.76;73.68;95737.52;108822;1270;22534;-75
2024/02/26 00:22:25;;;;;;;7.10;4.60;;;;;;;6.75;73.64;95734.96;108833;1271;22625;-75
2024/02/26 00:24:57;;;;;;;8.20;5.10;;;;;;;6.74;73.59;95731.98;108844;1271;25416;-75
2024/02/26 00:27:28;;;;;;;8.50;5.20;;;;;;;6.77;73.52;95730.34;108773;1271;22532;-75
2024/02/26 00:30:00;;;;;;;7.40;4.30;;;;;;;6.80;73.67;95730.83;108845;1268;25297;-75
2024/02/26 00:32:31;;;;;;;7.00;4.30;;;;;;;6.77;73.56;95728.33;108834;1265;22521;-74
2024/02/26 00:35:05;;;;;;;10.90;5.50;;;;;;;6.69;73.42;95733.77;108849;1271;22556;-74
2024/02/26 00:37:36;;;;;;;8.50;4.40;;;;;;;6.60;73.61;95729.33;108850;1271;25434;-75
2024/02/26 00:40:18;;;;;;;10.80;6.10;;;;;;;6.60;73.71;95724.23;108868;1268;22516;-75
2024/02/26 00:42:52;;;;;;;10.60;6.00;;;;;;;6.61;73.95;95716.90;108845;1265;22532;-75
2024/02/26 00:45:24;;;;;;;9.30;5.90;;;;;;;6.63;74.09;95716.52;108841;1271;24248;-74
2024/02/26 00:48:01;;;;;;;10.10;5.50;;;;;;;6.66;74.04;95716.88;108801;1271;25614;-75
2024/02/26 00:50:36;;;;;;;9.10;6.10;;;;;;;6.62;73.75;95708.48;108913;1271;22528;-75
2024/02/26 00:53:08;;;;;;;10.70;5.60;;;;;;;6.55;73.70;95712.05;108777;1268;22519;-75
2024/02/26 00:55:40;;;;;;;12.70;6.90;;;;;;;6.48;73.78;95711.52;108872;1266;25836;-75
2024/02/26 00:58:13;;;;;;;10.10;6.20;;;;;;;6.43;73.80;95711.98;108771;1271;22520;-75
2024/02/26 01:00:47;;;;;;;10.40;6.10;;;;;;;6.37;74.05;95709.64;108832;1266;22558;-75
2024/02/26 01:03:18;;;;;;;6.20;4.20;;;;;;;6.35;74.17;95706.52;108825;1271;22572;-75
2024/02/26 01:05:49;;;;;;;7.20;4.30;;;;;;;6.34;74.18;95705.94;108854;1268;22609;-75
2024/02/26 01:08:20;;;;;;;8.20;4.80;;;;;;;6.33;74.35;95703.71;108857;1266;22519;-75
2024/02/26 01:10:54;;;;;;;7.40;4.80;;;;;;;6.31;74.47;95704.98;108855;1265;22520;-75
2024/02/26 01:13:33;;;;;;;7.30;4.90;;;;;;;6.31;74.39;95701.35;108828;1271;22547;-75
2024/02/26 01:16:07;;;;;;;8.40;5.10;;;;;;;6.29;74.44;95701.48;108834;1271;22532;-75
2024/02/26 01:18:41;;;;;;;9.90;5.60;;;;;;;6.23;74.67;95698.63;108855;1271;22594;-75
2024/02/26 01:21:12;;;;;;;10.90;6.80;;;;;;;6.20;74.84;95699.39;108800;1268;22513;-75
2024/02/26 01:23:50;;;;;;;9.90;5.70;;;;;;;6.21;75.15;95698.21;108852;1271;22585;-75
2024/02/26 01:26:26;;;;;;;9.00;5.20;;;;;;;6.15;74.97;95697.35;108813;1271;25952;-75
2024/02/26 01:29:00;;;;;;;8.40;4.70;;;;;;;6.02;75.06;95700.36;108810;1266;22664;-75
2024/02/26 01:31:36;;;;;;;9.60;5.80;;;;;;;5.99;75.43;95708.33;108856;1271;22608;-75
2024/02/26 01:34:07;;;;;;;8.70;5.70;;;;;;;5.97;75.47;95710.13;108836;1271;22540;-75
2024/02/26 01:36:40;;;;;;;9.90;6.30;;;;;;;5.99;75.78;95707.48;108822;1271;22626;-75
2024/02/26 01:39:14;;;;;;;10.90;6.60;;;;;;;6.04;75.76;95708.39;108782;1265;24190;-75
2024/02/26 01:41:46;;;;;;;8.50;5.10;;;;;;;6.04;75.74;95706.14;108812;1268;22538;-75
2024/02/26 01:44:20;;;;;;;7.90;4.70;;;;;;;6.02;76.01;95703.31;108805;1268;22504;-75
2024/02/26 01:46:58;;;;;;;7.90;5.50;;;;;;;5.98;75.81;95698.86;108850;1268;22520;-75
2024/02/26 01:49:32;;;;;;;8.80;5.60;;;;;;;5.97;75.95;95697.14;108842;1265;25039;-74
2024/02/26 01:52:07;;;;;;;8.40;5.20;;;;;;;5.94;75.84;95693.67;108858;1271;22510;-74
2024/02/26 01:54:41;;;;;;;9.10;5.20;;;;;;;5.95;76.07;95700.05;108882;1268;22668;-75
2024/02/26 01:57:17;;;;;;;6.50;4.70;;;;;;;5.95;75.92;95699.88;108809;1271;22523;-75
2024/02/26 01:59:51;;;;;;;6.20;3.60;;;;;;;5.90;75.65;95702.89;108778;1268;22539;-75
2024/02/26 02:02:24;;;;;;;6.10;4.40;;;;;;;5.76;75.74;95708.51;108815;1271;26654;-74
2024/02/26 02:04:56;;;;;;;7.30;4.70;;;;;;;5.65;75.83;95706.50;108869;1271;22575;-75
2024/02/26 02:07:29;;;;;;;8.00;4.20;;;;;;;5.56;76.27;95706.99;108735;1268;25234;-75
2024/02/26 02:10:03;;;;;;;7.10;4.50;;;;;;;5.54;76.38;95709.33;108826;1271;22519;-75
2024/02/26 02:12:39;;;;;;;8.60;5.40;;;;;;;5.56;76.48;95709.73;108870;1271;22507;-75
2024/02/26 02:15:11;;;;;;;7.30;4.20;;;;;;;5.62;76.70;95701.77;108874;1271;22569;-75
2024/02/26 02:17:47;;;;;;;5.20;3.40;;;;;;;5.66;76.65;95702.45;108802;1266;22537;-75
2024/02/26 02:20:28;;;;;;;5.50;3.60;;;;;;;5.64;76.70;95696.52;108800;1271;22890;-75
2024/02/26 02:22:59;;;;;;;7.30;3.90;;;;;;;5.64;76.73;95696.73;108817;1266;24813;-74
2024/02/26 02:25:31;;;;;;;5.00;3.50;;;;;;;5.66;77.12;95698.45;108828;1272;22531;-75
2024/02/26 02:28:03;;;;;;;8.80;5.20;;;;;;;5.61;76.74;95704.67;108822;1271;22651;-75
2024/02/26 02:30:38;;;;;;;9.80;5.90;;;;;;;5.51;76.82;95702.77;108842;1272;22745;-75
2024/02/26 02:33:12;;;;;;;11.60;6.10;;;;;;;5.55;77.33;95704.90;108866;1268;22589;-75
2024/02/26 02:35:43;;;;;;;11.30;6.40;;;;;;;5.61;77.39;95706.87;108765;1266;25520;-75
2024/02/26 02:38:25;;;;;;;7.50;4.80;;;;;;;5.67;77.51;95713.90;108795;1268;22519;-75
2024/02/26 02:40:58;;;;;;;5.80;3.80;;;;;;;5.70;77.41;95714.52;108818;1250;22561;-75
2024/02/26 02:43:33;;;;;;;5.00;3.80;;;;;;;5.76;77.53;95717.34;108833;1268;22517;-75
2024/02/26 02:46:11;;;;;;;5.10;3.30;;;;;;;5.80;77.43;95717.23;108804;1271;22530;-75
2024/02/26 02:48:46;;;;;;;6.50;4.50;;;;;;;5.83;77.41;95714.79;108883;1268;22685;-75
2024/02/26 02:51:17;;;;;;;8.50;5.60;;;;;;;5.82;77.18;95716.16;108864;1271;22510;-75
2024/02/26 02:53:53;;;;;;;8.10;5.10;;;;;;;5.82;77.45;95717.36;108871;1268;22618;-75
2024/02/26 02:56:29;;;;;;;6.20;3.80;;;;;;;5.81;77.33;95721.38;108799;1272;22528;-75
2024/02/26 02:59:01;;;;;;;7.40;4.90;;;;;;;5.66;77.11;95716.80;108827;1271;25560;-75
2024/02/26 03:01:34;;;;;;;7.70;5.00;;;;;;;5.64;77.34;95718.39;108842;1272;25476;-75
2024/02/26 03:04:08;;;;;;;10.20;5.10;;;;;;;5.60;77.53;95719.54;108813;1271;23331;-75
2024/02/26 03:06:42;;;;;;;7.80;4.80;;;;;;;5.58;77.58;95715.14;108844;1271;22518;-75
2024/02/26 03:09:13;;;;;;;7.90;5.30;;;;;;;5.60;77.81;95713.70;108825;1271;24181;-75
2024/02/26 03:11:44;;;;;;;8.80;6.00;;;;;;;5.61;78.05;95711.91;108840;1272;22523;-75
2024/02/26 03:14:18;;;;;;;10.40;6.70;;;;;;;5.62;78.02;95713.12;108816;1268;22519;-75
2024/02/26 03:16:52;;;;;;;9.40;5.90;;;;;;;5.62;77.99;95717.38;108864;1272;23833;-75
2024/02/26 03:19:25;;;;;;;10.40;6.20;;;;;;;5.59;78.08;95720.70;108774;1271;22568;-75
2024/02/26 03:21:57;;;;;;;10.90;6.80;;;;;;;5.59;78.13;95720.60;108856;1271;22548;-75
2024/02/26 03:24:28;;;;;;;12.50;7.90;;;;;;;5.62;78.26;95716.64;108819;1272;22514;-75
2024/02/26 03:26:59;;;;;;;13.00;8.10;;;;;;;5.65;78.26;95712.60;108831;1272;22534;-75
2024/02/26 03:29:35;;;;;;;11.00;7.00;;;;;;;5.67;78.33;95704.18;108821;1271;25015;-75
2024/02/26 03:32:07;;;;;;;9.60;5.90;;;;;;;5.68;78.38;95704.43;108840;1272;22628;-75
2024/02/26 03:34:40;;;;;;;9.30;6.70;;;;;;;5.73;78.41;95702.88;108816;1272;22520;-75
2024/02/26 03:37:12;;;;;;;8.80;6.40;;;;;;;5.78;78.36;95693.14;108791;1264;22623;-75
2024/02/26 03:39:46;;;;;;;10.70;7.10;;;;;;;5.82;78.34;95691.39;108810;1272;24110;-75
2024/02/26 03:42:22;;;;;;;9.30;6.00;;;;;;;5.86;78.38;95691.30;108825;1272;23193;-75
2024/02/26 03:44:55;;;;;;;9.30;5.80;;;;;;;5.89;78.33;95701.24;108827;1270;26474;-75
2024/02/26 03:47:29;;;;;;;10.00;7.30;;;;;;;5.92;78.19;95700.16;108822;1271;22524;-75
2024/02/26 03:50:05;;;;;;;9.40;6.20;;;;;;;5.95;78.30;95697.83;108890;1265;22755;-75
2024/02/26 03:52:36;;;;;;;9.50;5.80;;;;;;;5.99;78.34;95694.17;108841;1270;22522;-75
2024/02/26 03:55:09;;;;;;;8.20;5.50;;;;;;;5.99;78.23;95693.07;108792;1268;23352;-75
2024/02/26 03:57:44;;;;;;;8.10;5.50;;;;;;;5.97;78.08;95698.45;108886;1271;27452;-75
2024/02/26 04:00:20;;;;;;;9.90;5.60;;;;;;;5.96;78.15;95696.08;108821;1271;24260;-75
2024/02/26 04:02:55;;;;;;;8.70;5.10;;;;;;;5.96;78.21;95685.41;108850;1271;22531;-75
2024/02/26 04:05:33;;;;;;;6.90;4.20;;;;;;;5.97;78.25;95688.77;108818;1265;22552;-75
2024/02/26 04:08:07;;;;;;;9.00;5.60;;;;;;;5.96;78.16;95682.94;108819;1271;22531;-75
2024/02/26 04:10:42;;;;;;;8.10;5.50;;;;;;;5.95;78.14;95684.30;108881;1268;22518;-75
2024/02/26 04:13:20;;;;;;;7.80;5.10;;;;;;;5.94;78.30;95679.48;108872;1271;22598;-75
2024/02/26 04:15:52;;;;;;;8.00;4.70;;;;;;;5.93;78.37;95682.16;108821;1265;22520;-75
2024/02/26 04:18:23;;;;;;;7.90;5.30;;;;;;;5.94;78.39;95685.52;108815;1271;22558;-75
2024/02/26 04:20:58;;;;;;;8.40;5.80;;;;;;;5.92;78.28;95689.91;108788;1271;22524;-75
2024/02/26 04:23:29;;;;;;;7.80;5.30;;;;;;;5.92;78.28;95687.80;108907;1271;22521;-75
2024/02/26 04:26:05;;;;;;;8.70;4.90;;;;;;;5.94;78.51;95685.95;108734;1272;23847;-75
2024/02/26 04:28:36;;;;;;;8.70;4.90;;;;;;;5.91;78.46;95682.48;108852;1271;22520;-75
2024/02/26 04:31:10;;;;;;;9.40;5.50;;;;;;;5.88;78.39;95675.24;108811;1265;22637;-75
2024/02/26 04:33:43;;;;;;;8.50;5.10;;;;;;;5.87;78.55;95674.05;108845;1271;22550;-75
2024/02/26 04:36:20;;;;;;;8.40;5.60;;;;;;;5.89;78.67;95669.98;108805;1266;22563;-75
2024/02/26 04:38:51;;;;;;;7.90;5.00;;;;;;;5.89;78.56;95672.88;108831;1271;25407;-75
2024/02/26 04:41:23;;;;;;;7.90;4.50;;;;;;;5.89;78.54;95674.05;108831;1265;22998;-75
2024/02/26 04:43:56;;;;;;;6.50;3.90;;;;;;;5.90;78.61;95670.22;108822;1271;22521;-75
2024/02/26 04:46:28;;;;;;;6.90;4.60;;;;;;;5.89;78.65;95668.47;108762;1269;22521;-75
2024/02/26 04:49:05;;;;;;;7.80;5.00;;;;;;;5.83;78.56;95664.66;108894;1271;22559;-75
2024/02/26 04:51:39;;;;;;;6.60;4.50;;;;;;;5.79;78.56;95662.52;108805;1271;22544;-75
2024/02/26 04:54:10;;;;;;;6.40;4.30;;;;;;;5.80;78.64;95661.95;108832;1271;22866;-75
2024/02/26 04:56:41;;;;;;;4.80;3.20;;;;;;;5.79;78.57;95660.05;108807;1265;22784;-75
2024/02/26 04:59:14;;;;;;;5.80;3.30;;;;;;;5.77;78.57;95657.69;108900;1271;23281;-75
2024/02/26 05:01:45;;;;;;;6.80;4.20;;;;;;;5.75;78.80;95656.00;108818;1272;24059;-75
2024/02/26 05:04:18;;;;;;;5.80;3.70;;;;;;;5.72;78.76;95656.61;108829;1271;25349;-75
2024/02/26 05:06:50;;;;;;;5.30;3.60;;;;;;;5.66;78.58;95654.75;108826;1268;22520;-75
2024/02/26 05:09:26;;;;;;;3.70;2.80;;;;;;;5.64;78.93;95657.34;108811;1272;24296;-75
2024/02/26 05:12:00;;;;;;;5.50;3.80;;;;;;;5.62;78.80;95652.91;108843;1271;22641;-75
2024/02/26 05:14:32;;;;;;;4.40;3.00;;;;;;;5.45;78.09;95658.14;108773;1272;25287;-75
2024/02/26 05:17:08;;;;;;;5.40;4.90;;;;;;;5.19;78.06;95656.23;108831;1271;25667;-75
2024/02/26 05:19:41;;;;;;;3.60;2.20;;;;;;;5.01;78.61;95652.42;108850;1271;22571;-75
2024/02/26 05:22:16;;;;;;;3.60;2.40;;;;;;;4.92;79.15;95655.55;108851;1271;22563;-75
2024/02/26 05:24:48;;;;;;;3.90;2.60;;;;;;;4.86;79.48;95651.41;108836;1269;23760;-75
2024/02/26 05:27:19;;;;;;;4.40;3.00;;;;;;;4.84;79.61;95655.98;108802;1257;22576;-75
2024/02/26 05:29:51;;;;;;;4.00;2.70;;;;;;;4.82;79.82;95658.45;108784;1272;24356;-75
2024/02/26 05:32:25;;;;;;;4.80;2.90;;;;;;;4.80;79.90;95662.52;108831;1271;22529;-74
2024/02/26 05:34:56;;;;;;;4.10;3.10;;;;;;;4.80;80.05;95665.39;108803;1269;22617;-74
2024/02/26 05:37:29;;;;;;;5.40;3.50;;;;;;;4.73;79.92;95661.45;108848;1271;26564;-74
2024/02/26 05:40:04;;;;;;;4.40;3.00;;;;;;;4.75;80.41;95656.46;108773;1271;22511;-74
2024/02/26 05:42:37;;;;;;;3.50;2.60;;;;;;;4.87;80.68;95664.63;108825;1271;25381;-74
2024/02/26 05:45:10;;;;;;;4.40;2.50;;;;;;;4.91;80.68;95667.98;108827;1269;29165;-75
2024/02/26 05:47:43;;;;;;;4.80;3.20;;;;;;;4.99;80.78;95664.83;108907;1267;22521;-75
2024/02/26 05:50:15;;;;;;;5.50;3.50;;;;;;;5.10;81.09;95671.49;108956;1271;23005;-74
2024/02/26 05:52:47;;;;;;;5.50;3.70;;;;;;;5.16;80.90;95667.05;108891;1271;23256;-74
2024/02/26 05:55:19;;;;;;;6.00;3.90;;;;;;;5.17;80.57;95665.73;108849;1272;24208;-74
2024/02/26 05:57:50;;;;;;;5.20;3.10;;;;;;;5.11;80.40;95668.13;108835;1271;24021;-74
2024/02/26 06:00:22;;;;;;;5.90;3.50;;;;;;;5.11;80.41;95661.45;108785;1267;22576;-75
2024/02/26 06:03:02;;;;;;;9.70;6.20;;;;;;;5.03;79.83;95663.41;108829;1271;22698;-75
2024/02/26 06:05:35;;;;;;;8.70;5.20;;;;;;;4.79;80.22;95652.73;108870;1268;23959;-74
2024/02/26 06:08:09;;;;;;;5.70;3.90;;;;;;;4.84;80.59;95666.85;108812;1271;22626;-75
2024/02/26 06:10:44;;;;;;;6.60;3.60;;;;;;;4.87;80.48;95659.59;108863;1271;22591;-75
2024/02/26 06:13:17;;;;;;;6.00;3.30;;;;;;;5.11;80.96;95659.35;108827;1271;26808;-75
2024/02/26 06:15:52;;;;;;;6.50;3.40;;;;;;;5.42;81.04;95664.83;108853;1265;22561;-75
2024/02/26 06:18:25;;;;;;;6.00;3.70;;;;;;;5.49;80.31;95662.64;108843;1272;22565;-74
2024/02/26 06:20:59;;;;;;;6.30;3.50;;;;;;;5.57;80.63;95662.77;108852;1271;23087;-75
2024/02/26 06:23:30;;;;;;;6.00;3.90;;;;;;;5.70;80.73;95661.52;108867;1269;22515;-74
2024/02/26 06:26:02;;;;;;;6.00;4.10;;;;;;;5.78;80.33;95663.38;108807;1272;22527;-75
2024/02/26 06:28:35;;;;;;;5.00;3.70;;;;;;;5.80;80.19;95668.88;108865;1271;25425;-74
2024/02/26 06:31:08;;;;;;;8.80;5.20;;;;;;;5.77;79.96;95677.58;108781;1266;22533;-74
2024/02/26 06:33:39;;;;;;;9.40;6.40;;;;;;;5.78;79.90;95681.78;108839;1271;22542;-74
2024/02/26 06:36:13;;;;;;;7.00;4.70;;;;;;;5.81;80.04;95679.67;108790;1271;22508;-75
2024/02/26 06:38:44;;;;;;;7.70;5.10;;;;;;;5.88;80.07;95681.52;108828;1271;22654;-74
2024/02/26 06:41:18;;;;;;;5.50;4.10;;;;;;;6.25;80.38;95683.34;108785;1272;22529;-74
2024/02/26 06:43:50;;;;;;;6.30;4.00;;;;;;;6.62;80.16;95689.63;108849;1271;22544;-74
2024/02/26 06:46:23;;;;;;;6.60;4.50;;;;;;;6.77;79.95;95687.65;108764;1266;22513;-74
2024/02/26 06:48:59;;;;;;;8.00;5.10;;;;;;;6.87;79.88;95691.15;108814;1271;22511;-74
2024/02/26 06:51:40;;;;;;;7.30;4.90;;;;;;;7.00;79.74;95703.64;108806;1268;26463;-74
2024/02/26 06:54:13;;;;;;;6.40;4.40;;;;;;;6.86;78.67;95702.08;108828;1271;27528;-74
2024/02/26 06:56:44;;;;;;;6.90;4.30;;;;;;;6.47;78.53;95705.31;108802;1270;22651;-74
2024/02/26 06:59:17;;;;;;;6.80;4.30;;;;;;;6.21;79.11;95706.00;108834;1272;25350;-74
2024/02/26 07:01:48;;;;;;;6.30;4.40;;;;;;;6.11;79.50;95706.80;108842;1272;24210;-74
2024/02/26 07:04:22;;;;;;;6.20;4.40;;;;;;;6.05;79.64;95711.86;108879;1269;24193;-74
2024/02/26 07:06:53;;;;;;;6.60;4.40;;;;;;;6.14;80.14;95711.25;108886;1271;22517;-73
2024/02/26 07:09:27;;;;;;;7.10;4.40;;;;;;;6.35;80.41;95714.18;108860;1271;22517;-72
2024/02/26 07:11:58;;;;;;;7.10;4.40;;;;;;;6.56;80.32;95717.52;108869;1272;22520;-72
2024/02/26 07:14:32;;;;;;;5.60;4.40;;;;;;;6.59;79.46;95715.45;108858;1269;25368;-72
2024/02/26 07:17:07;;;;;;;6.20;4.30;;;;;;;6.54;79.19;95718.16;108899;1272;22537;-72
2024/02/26 07:19:42;;;;;;;6.70;4.40;;;;;;;6.61;79.47;95713.11;108858;1269;22742;-72
2024/02/26 07:22:18;;;;;;;8.30;4.70;;;;;;;6.86;79.65;95710.65;108823;1271;24017;-72
2024/02/26 07:24:52;;;;;;;4.50;3.60;;;;;;;7.19;79.65;95706.73;108837;1272;22537;-72
2024/02/26 07:27:26;;;;;;;5.90;3.70;;;;;;;7.62;79.70;95707.54;108774;1272;24939;-72
2024/02/26 07:30:00;;;;;;;6.20;4.40;;;;;;;8.56;79.26;95702.14;108860;1270;25411;-73
2024/02/26 07:32:32;;;;;;;6.30;4.10;;;;;;;8.73;78.27;95701.05;108826;1270;25443;-73
2024/02/26 07:35:04;;;;;;;5.30;4.20;;;;;;;8.72;77.69;95699.95;108811;1263;22531;-72
2024/02/26 07:37:38;;;;;;;5.60;4.20;;;;;;;8.72;77.62;95706.91;108831;1272;32688;-72
2024/02/26 07:40:11;;;;;;;5.90;4.00;;;;;;;8.90;77.41;95705.41;108867;1253;22546;-73
2024/02/26 07:42:44;;;;;;;6.40;4.00;;;;;;;8.75;76.90;95703.11;108819;1272;22529;-73
2024/02/26 07:45:23;;;;;;;5.00;3.30;;;;;;;8.50;76.92;95705.23;108786;1266;22539;-73
2024/02/26 07:47:57;;;;;;;5.00;3.50;;;;;;;8.55;77.44;95706.59;108856;1267;23256;-73
2024/02/26 07:50:32;;;;;;;5.20;3.60;;;;;;;9.66;77.93;95707.77;108874;1272;22712;-73
2024/02/26 07:53:06;;;;;;;5.30;3.70;;;;;;;11.32;78.66;95700.55;108863;1270;22539;-73
2024/02/26 07:55:38;;;;;;;6.70;4.90;;;;;;;13.31;76.34;95690.79;108867;1266;26425;-73
2024/02/26 07:58:09;;;;;;;5.60;4.10;;;;;;;14.86;74.29;95690.19;108744;1268;28199;-73
2024/02/26 08:00:43;;;;;;;4.20;3.30;;;;;;;16.21;72.66;95685.80;108831;1267;22891;-73
2024/02/26 08:03:19;;;;;;;3.50;2.80;;;;;;;17.71;72.01;95683.17;108823;1269;23896;-73
2024/02/26 08:05:54;;;;;;;3.50;2.20;;;;;;;19.04;69.97;95676.90;108766;1269;22517;-73
2024/02/26 08:08:28;;;;;;;3.30;2.60;;;;;;;19.95;67.40;95674.04;108928;1254;24227;-73
2024/02/26 08:11:04;;;;;;;3.60;2.80;;;;;;;20.76;64.65;95680.61;108855;1272;22539;-73
2024/02/26 08:13:35;;;;;;;2.60;2.20;;;;;;;20.30;62.83;95682.52;108809;1270;23522;-73
2024/02/26 08:16:09;;;;;;;4.50;3.60;;;;;;;19.76;62.19;95687.83;108624;1261;22527;-73
2024/02/26 08:18:41;;;;;;;4.10;2.80;;;;;;;20.08;62.20;95687.10;108794;1265;23906;-73
2024/02/26 08:21:14;;;;;;;4.50;3.30;;;;;;;21.28;60.94;95677.50;108850;1270;23815;-74
2024/02/26 08:23:46;;;;;;;3.80;2.60;;;;;;;21.87;58.32;95669.12;108857;1251;22556;-74
2024/02/26 08:26:22;;;;;;;3.10;2.50;;;;;;;21.36;57.70;95674.60;108819;1267;22919;-74
2024/02/26 08:28:55;;;;;;;4.00;2.30;;;;;;;21.27;57.06;95677.59;108845;1271;25493;-73
2024/02/26 08:31:27;;;;;;;4.30;2.80;;;;;;;21.62;56.42;95677.55;108823;1272;22522;-74
2024/02/26 08:34:03;;;;;;;4.20;2.40;;;;;;;22.31;55.66;95679.79;108859;1272;22528;-74
2024/02/26 08:36:38;;;;;;;4.40;2.20;;;;;;;22.82;54.32;95678.54;108812;1271;22539;-74
2024/02/26 08:39:10;;;;;;;3.20;2.10;;;;;;;22.55;52.99;95676.23;108838;1270;22530;-74
2024/02/26 08:41:43;;;;;;;2.90;2.00;;;;;;;20.96;52.32;95679.44;108849;1248;22526;-74
2024/02/26 08:44:17;;;;;;;3.90;1.90;;;;;;;19.98;52.43;95686.17;108791;1269;25372;-73
2024/02/26 08:46:52;;;;;;;3.80;1.90;;;;;;;19.49;52.49;95691.48;108584;1265;24519;-72
2024/02/26 08:49:26;;;;;;;2.50;1.60;;;;;;;18.69;52.62;95689.71;108843;1271;25618;-73
2024/02/26 08:51:57;;;;;;;2.40;1.70;;;;;;;17.74;52.65;95689.98;108820;1271;22569;-72
2024/02/26 08:54:32;;;;;;;2.10;1.50;;;;;;;17.25;53.46;95686.92;108867;1271;22527;-72
2024/02/26 08:57:04;;;;;;;2.20;1.50;;;;;;;17.61;54.41;95680.19;108803;1248;22525;-73
2024/02/26 08:59:43;;;;;;;2.10;1.80;;;;;;;18.49;54.61;95677.02;108883;1271;22641;-72
2024/02/26 09:02:14;;;;;;;2.50;1.80;;;;;;;18.43;53.73;95681.72;108667;1266;22976;-72
2024/02/26 09:04:46;;;;;;;1.90;1.40;;;;;;;18.21;53.55;95674.04;108863;1271;22521;-72
2024/02/26 09:07:22;;;;;;;3.00;1.90;;;;;;;17.73;53.17;95669.16;108841;1271;22580;-73
2024/02/26 09:09:54;;;;;;;1.70;1.30;;;;;;;17.30;53.55;95669.98;108781;1268;26207;-73
2024/02/26 09:12:27;;;;;;;2.10;1.30;;;;;;;17.19;53.94;95670.23;108757;1267;26806;-73
2024/02/26 09:15:00;;;;;;;1.70;1.40;;;;;;;17.14;54.05;95666.52;108754;1268;24208;-73
2024/02/26 09:17:35;;;;;;;1.80;1.30;;;;;;;16.75;53.70;95671.11;108788;1271;23918;-73
2024/02/26 09:20:10;;;;;;;2.80;1.80;;;;;;;16.20;53.24;95677.01;108771;1265;23508;-73
2024/02/26 09:22:45;;;;;;;2.50;1.50;;;;;;;15.46;53.32;95679.52;108813;1267;23353;-73
2024/02/26 09:25:19;;;;;;;2.30;2.00;;;;;;;14.98;54.24;95684.47;108800;1271;22574;-73
2024/02/26 09:27:53;;;;;;;3.60;2.00;;;;;;;15.09;55.25;95680.19;108757;1267;22756;-73
2024/02/26 09:30:27;;;;;;;2.30;1.70;;;;;;;15.17;55.49;95677.63;108819;1271;22524;-73
2024/02/26 09:33:01;;;;;;;2.60;1.60;;;;;;;15.21;55.94;95681.61;108752;1267;22563;-73
2024/02/26 09:35:32;;;;;;;3.20;2.20;;;;;;;15.13;55.54;95677.08;108853;1265;23307;-73
2024/02/26 09:38:07;;;;;;;2.10;1.70;;;;;;;14.97;55.75;95675.06;108805;1265;22524;-74
2024/02/26 09:40:42;;;;;;;2.40;1.50;;;;;;;14.86;55.88;95678.11;108839;1271;22510;-74
2024/02/26 09:43:18;;;;;;;2.90;1.70;;;;;;;14.85;56.25;95678.28;108794;1272;22526;-74
2024/02/26 09:45:52;;;;;;;2.30;1.60;;;;;;;14.83;56.36;95680.59;108775;1270;22520;-74
2024/02/26 09:48:27;;;;;;;3.80;1.90;;;;;;;14.79;56.56;95680.25;108814;1267;23746;-74
2024/02/26 09:51:06;;;;;;;3.80;1.60;;;;;;;14.74;56.63;95686.59;108803;1270;23822;-73
2024/02/26 09:53:42;;;;;;;2.20;1.60;;;;;;;14.78;56.81;95686.98;108865;1272;22540;-74
2024/02/26 09:56:16;;;;;;;2.20;1.60;;;;;;;14.69;56.58;95686.19;108742;1267;26433;-74
2024/02/26 09:58:53;;;;;;;3.70;1.70;;;;;;;14.45;56.62;95683.62;108877;1271;22549;-73
2024/02/26 10:01:27;;;;;;;1.90;1.60;;;;;;;14.32;56.95;95690.95;108806;1267;24183;-73
2024/02/26 10:04:01;;;;;;;1.80;1.60;;;;;;;14.28;57.24;95685.34;108833;1272;25467;-74
2024/02/26 10:06:38;;;;;;;1.80;1.50;;;;;;;14.35;57.49;95681.63;108742;1267;24243;-73
2024/02/26 10:09:12;;;;;;;7.60;2.50;;;;;;;14.45;57.68;95678.81;108694;1271;22544;-73
2024/02/26 10:11:45;;;;;;;1.70;1.40;;;;;;;14.53;57.82;95676.69;108752;1267;22540;-73
2024/02/26 10:14:21;;;;;;;2.80;2.00;;;;;;;14.65;57.92;95677.73;108589;1266;25037;-73
2024/02/26 10:16:55;;;;;;;2.10;1.40;;;;;;;14.69;57.89;95677.05;108822;1266;24216;-73
2024/02/26 10:19:32;;;;;;;1.90;1.40;;;;;;;14.55;57.45;95679.98;108691;1266;25838;-72
2024/02/26 10:22:04;;;;;;;1.80;1.60;;;;;;;14.36;57.55;95681.30;108817;1271;22530;-73
2024/02/26 10:24:35;;;;;;;1.40;1.30;;;;;;;14.31;57.86;95684.82;108752;1271;26565;-73
2024/02/26 10:27:09;;;;;;;2.20;1.60;;;;;;;14.22;57.85;95679.55;108829;1264;25266;-73
2024/02/26 10:29:42;;;;;;;1.90;1.40;;;;;;;14.11;57.88;95679.46;108841;1269;22528;-73
2024/02/26 10:32:15;;;;;;;2.00;1.30;;;;;;;14.00;57.94;95678.11;108856;1264;22580;-73
2024/02/26 10:34:52;;;;;;;1.40;1.20;;;;;;;14.01;58.29;95678.96;108915;1272;24320;-73
2024/02/26 10:37:26;;;;;;;1.40;1.20;;;;;;;14.02;58.31;95678.26;108810;1267;26464;-73
2024/02/26 10:39:57;;;;;;;1.80;1.40;;;;;;;13.84;58.10;95676.34;108760;1264;22560;-73
2024/02/26 10:42:31;;;;;;;2.90;1.60;;;;;;;13.73;58.64;95675.09;108660;1267;22531;-73
2024/02/26 10:45:02;;;;;;;1.80;1.50;;;;;;;13.89;58.99;95672.98;108824;1264;22527;-73
2024/02/26 10:47:34;;;;;;;2.20;1.40;;;;;;;14.08;59.01;95677.50;108807;1271;23758;-74
2024/02/26 10:50:09;;;;;;;1.70;1.40;;;;;;;14.31;59.10;95674.35;108768;1265;23988;-74
2024/02/26 10:52:41;;;;;;;2.60;1.60;;;;;;;14.45;58.93;95666.55;108845;1265;23839;-74
2024/02/26 10:55:19;;;;;;;2.10;1.70;;;;;;;14.53;59.00;95669.54;108863;1264;22521;-74
2024/02/26 10:57:57;;;;;;;1.90;1.50;;;;;;;14.71;59.00;95669.04;108828;1267;23152;-73
2024/02/26 11:00:31;;;;;;;2.70;1.80;;;;;;;14.93;59.02;95667.27;108872;1271;25245;-74
2024/02/26 11:03:05;;;;;;;4.20;2.50;;;;;;;15.19;59.08;95664.07;108780;1266;22637;-75
2024/02/26 11:05:41;;;;;;;4.50;2.80;;;;;;;15.30;58.76;95665.55;108792;1271;24252;-73
2024/02/26 11:08:13;;;;;;;3.60;2.30;;;;;;;15.18;58.27;95664.17;108745;1267;22521;-72
2024/02/26 11:10:48;;;;;;;4.60;2.50;;;;;;;15.00;58.11;95660.96;108854;1271;22585;-72
2024/02/26 11:13:26;;;;;;;5.10;3.10;;;;;;;14.69;57.87;95662.03;108854;1265;22527;-73
2024/02/26 11:15:59;;;;;;;4.30;2.90;;;;;;;14.37;58.04;95660.31;108863;1271;25807;-73
2024/02/26 11:18:33;;;;;;;4.40;2.90;;;;;;;14.22;58.35;95658.38;108931;1271;23295;-71
2024/02/26 11:21:11;;;;;;;5.10;2.30;;;;;;;14.11;58.79;95658.52;108881;1271;27469;-71
2024/02/26 11:23:43;;;;;;;3.90;2.10;;;;;;;14.22;59.06;95661.89;108676;1271;22528;-72
2024/02/26 11:26:17;;;;;;;3.40;2.40;;;;;;;14.37;59.41;95659.56;108811;1271;25281;-73
2024/02/26 11:28:53;;;;;;;3.60;2.40;;;;;;;14.66;59.73;95651.79;108834;1270;24331;-73
2024/02/26 11:31:29;;;;;;;4.60;2.60;;;;;;;14.83;59.19;95652.67;108879;1271;22525;-74
2024/02/26 11:34:04;;;;;;;3.40;2.50;;;;;;;14.88;58.48;95652.63;108890;1263;22527;-74
2024/02/26 11:36:35;;;;;;;4.10;2.50;;;;;;;14.96;58.77;95648.33;108864;1266;25465;-72
2024/02/26 11:39:09;;;;;;;4.50;2.40;;;;;;;15.15;59.10;95644.17;108871;1271;22576;-73
2024/02/26 11:41:41;;;;;;;3.40;2.50;;;;;;;15.45;59.17;95650.27;108771;1260;22527;-73
2024/02/26 11:44:15;;;;;;;3.10;2.40;;;;;;;15.57;58.71;95649.50;108865;1271;23801;-74
2024/02/26 11:46:49;;;;;;;3.10;2.40;;;;;;;15.75;58.86;95646.60;108759;1265;25422;-73
2024/02/26 11:49:38;;;;;;;3.40;2.90;;;;;;;15.92;58.45;95648.20;108817;1271;23864;-73
2024/02/26 11:52:11;;;;;;;4.30;2.90;;;;;;;15.93;58.13;95652.89;108871;1263;22565;-74
2024/02/26 11:54:52;;;;;;;4.30;3.40;;;;;;;15.86;57.80;95656.02;108759;1270;22542;-74
2024/02/26 11:57:40;;;;;;;4.80;3.70;;;;;;;15.93;57.78;95647.94;109797;1268;24235;-73
2024/02/26 12:00:23;;;;;;;5.10;3.90;;;;;;;15.78;57.41;95650.34;108869;1271;22513;-74